Hlavní strana
METAR-TAF:

METAR-TAF

Letiště :

Recife, Pernambuco, Brazílie

zeměpisná šířka: 08-08S, zeměpisná délka: 034-55W, výška: 19 m

Aktuální stav počasí

Zpráva byla vytvořena před 50 minutami, v 09:00 UTC
Bezvětří
Teplota 27°C
Vlhkost vzduchu 74%
Tlak 1011 hPa
Viditelnost 10 km a více
Polojasno ve výšce 2300 ft

METAR: SBRF 210900Z 00000KT 9999 SCT023 27/22 Q1011

Čas: 06:50 (09:50 UTC)

Předpověď počasí

Zpráva byla vytvořena před 8 hodinami a 50 minutami, v 01:00 UTC
Předpověď platná od 21 v 06 UTC do 22 v 06 UTC
Východojihovýchodní vítr 8 kt
Viditelnost: 9000 m
Polojasno ve výšce 1800 ft

TAF: SBRF 210100Z 2106/2206 12008KT 9000 SCT018 TN25/2108Z TX30/2115Z RMK PDU

Stav a předpovědi počasí z více než 4 000 letišť (zprávy METAR a TAF).

Červené a žluté tečky na mapě představují dostupné meteorologické stanice.

Když kurzor umístíte na tečku, zobrazí se název stanice.

Pak kliknutím zobrazíte stav a předpověď počasí.

Chcete-li změnit mapu, kliknutím na zelené tlačítko se znaménkem +mapu přiblížíte, kliknutím na zelené tlačítko se znaménkem – mapu oddálíte a kliknutím na zelené šipky přejdete na sousední mapy.


METAR-TAF: